Time;durP1;ratioP1;P1;durP2;ratioP2;P2;SDS_P1;SDS_P2;PMS_P1;PMS_P2;Temp;Humidity;BMP_temperature;BMP_pressure;BME280_temperature;BME280_humidity;BME280_pressure;Samples;Min_cycle;Max_cycle;Signal;HPM_P1;HPM_P2
2022/08/02 00:04:52;;;;;;;2.30;1.25;;;;;;;19.74;70.99;96961.59;10324197;28;20493;-26
2022/08/02 00:09:53;;;;;;;2.30;0.97;;;;;;;19.73;70.73;96957.38;10325434;28;20034;-25
2022/08/02 00:14:53;;;;;;;2.30;1.00;;;;;;;19.68;70.72;96947.22;10327201;28;20046;-24
2022/08/02 00:19:53;;;;;;;2.27;0.90;;;;;;;19.73;70.67;96957.38;10328850;28;20062;-24
2022/08/02 00:24:54;;;;;;;3.57;1.67;;;;;;;19.73;70.72;96957.38;10324355;28;20297;-26
2022/08/02 00:29:54;;;;;;;2.10;1.30;;;;;;;19.72;70.65;96951.47;10326692;28;20056;-25
2022/08/02 00:34:55;;;;;;;4.22;1.20;;;;;;;19.73;70.93;96947.22;10328233;28;20049;-25
2022/08/02 00:39:56;;;;;;;1.30;1.20;;;;;;;19.73;70.69;96942.97;10325082;28;20039;-24
2022/08/02 00:44:57;;;;;;;1.38;0.88;;;;;;;19.70;70.80;96949.75;10327584;28;20037;-25
2022/08/02 00:49:58;;;;;;;1.98;1.10;;;;;;;19.68;70.61;96938.75;10321816;28;20165;-25
2022/08/02 00:54:58;;;;;;;1.53;1.00;;;;;;;19.68;70.72;96939.59;10323284;28;20206;-26
2022/08/02 00:59:58;;;;;;;1.33;0.97;;;;;;;19.72;70.55;96927.75;10322799;28;20027;-25
2022/08/02 01:04:59;;;;;;;2.83;1.20;;;;;;;19.61;70.70;96917.59;10322413;28;20048;-26
2022/08/02 01:09:59;;;;;;;1.52;1.30;;;;;;;19.57;70.90;96912.50;10323294;28;20138;-26
2022/08/02 01:15:07;;;;;;;1.38;1.27;;;;;;;19.62;70.55;96916.75;10321414;28;20034;-25
2022/08/02 01:20:24;;;;;;;1.13;1.00;;;;;;;19.65;70.39;96918.44;10324050;28;20031;-25
2022/08/02 01:25:28;;;;;;;1.50;1.10;;;;;;;19.59;70.37;96926.06;10322385;28;20046;-26
2022/08/02 01:30:30;;;;;;;1.30;1.20;;;;;;;19.53;70.52;96914.22;10319140;28;20046;-25
2022/08/02 01:35:41;;;;;;;2.13;1.48;;;;;;;19.55;70.50;96912.53;10319593;28;20500;-26
2022/08/02 01:40:44;;;;;;;2.58;1.17;;;;;;;19.59;70.42;96905.75;10323912;28;20516;-25
2022/08/02 01:45:45;;;;;;;0.98;0.93;;;;;;;19.59;70.37;96909.13;10320104;28;20027;-25
2022/08/02 01:50:47;;;;;;;4.05;1.63;;;;;;;19.47;69.99;96881.22;10322313;28;20034;-25
2022/08/02 01:55:51;;;;;;;2.33;1.30;;;;;;;19.55;70.35;96909.13;10331370;28;20550;-25
2022/08/02 02:00:55;;;;;;;1.73;0.90;;;;;;;19.55;70.19;96897.28;10328553;28;20571;-25
2022/08/02 02:05:57;;;;;;;2.60;1.15;;;;;;;19.57;70.06;96895.59;10328154;28;20432;-25
2022/08/02 02:10:59;;;;;;;1.13;1.02;;;;;;;19.57;70.02;96899.81;10330296;28;20030;-25
2022/08/02 02:16:03;;;;;;;2.47;1.35;;;;;;;19.53;70.12;96898.13;10328285;28;20026;-27
2022/08/02 02:21:04;;;;;;;2.40;1.30;;;;;;;19.56;70.01;96898.97;10326550;28;20485;-26
2022/08/02 02:26:05;;;;;;;1.83;1.30;;;;;;;19.50;70.25;96893.06;10329128;28;20038;-25
2022/08/02 02:31:08;;;;;;;1.40;1.10;;;;;;;19.50;70.01;96885.47;10326339;28;20110;-25
2022/08/02 02:36:10;;;;;;;1.60;1.15;;;;;;;19.43;70.28;96871.06;10325750;28;20039;-27
2022/08/02 02:41:11;;;;;;;3.03;1.10;;;;;;;19.46;70.40;96877.00;10329329;28;20113;-26
2022/08/02 02:46:12;;;;;;;1.10;1.00;;;;;;;19.44;70.37;96882.91;10324044;28;20035;-26
2022/08/02 02:51:13;;;;;;;3.30;1.27;;;;;;;19.48;70.11;96879.50;10325969;28;20030;-26
2022/08/02 02:56:16;;;;;;;1.92;1.08;;;;;;;19.47;69.97;96876.16;10328596;28;20034;-27
2022/08/02 03:01:29;;;;;;;2.72;1.42;;;;;;;19.44;70.23;96876.13;10327025;28;20045;-26
2022/08/02 03:06:30;;;;;;;2.28;1.38;;;;;;;19.42;70.08;96874.47;10324815;28;20386;-25
2022/08/02 03:11:31;;;;;;;2.05;1.30;;;;;;;19.45;69.47;96869.38;10328160;28;20038;-26
2022/08/02 03:16:31;;;;;;;2.58;1.40;;;;;;;19.32;69.71;96860.06;10326933;28;20039;-26
2022/08/02 03:21:32;;;;;;;1.85;1.23;;;;;;;19.43;69.94;96884.59;10323527;28;20065;-27
2022/08/02 03:26:32;;;;;;;4.93;1.40;;;;;;;19.51;69.45;96880.34;10327715;28;20042;-26
2022/08/02 03:31:33;;;;;;;1.33;1.23;;;;;;;19.44;69.66;96883.75;10326031;28;20036;-26
2022/08/02 03:36:35;;;;;;;1.70;1.10;;;;;;;19.37;70.10;96887.16;10316433;28;20034;-26
2022/08/02 03:41:36;;;;;;;1.90;1.58;;;;;;;19.35;70.17;96876.13;10326645;28;20046;-26
2022/08/02 03:46:38;;;;;;;2.65;1.17;;;;;;;19.35;70.12;96878.69;10318824;28;20061;-25
2022/08/02 03:51:39;;;;;;;1.80;1.25;;;;;;;19.35;69.98;96867.69;10324946;28;20046;-26
2022/08/02 03:56:39;;;;;;;2.45;1.35;;;;;;;19.32;70.12;96876.16;10326047;28;20042;-25
2022/08/02 04:01:40;;;;;;;3.15;1.40;;;;;;;19.31;70.21;96868.53;10322201;28;20088;-26
2022/08/02 04:06:40;;;;;;;2.15;1.67;;;;;;;19.27;69.98;96874.47;10322801;28;20034;-26
2022/08/02 04:11:42;;;;;;;2.25;1.48;;;;;;;19.27;70.08;96865.16;10325133;28;20051;-25
2022/08/02 04:16:46;;;;;;;1.97;1.43;;;;;;;19.26;70.03;96867.72;10319557;28;20041;-26
2022/08/02 04:21:50;;;;;;;3.10;1.50;;;;;;;19.26;70.05;96870.25;10319684;28;20042;-26
2022/08/02 04:26:53;;;;;;;1.75;1.25;;;;;;;19.25;69.69;96863.47;10324384;28;20034;-26
2022/08/02 04:31:54;;;;;;;1.73;1.40;;;;;;;19.24;70.01;96869.41;10319416;28;20034;-26
2022/08/02 04:36:55;;;;;;;2.47;1.83;;;;;;;19.24;69.89;96871.94;10318815;28;20041;-26
2022/08/02 04:41:55;;;;;;;1.77;1.60;;;;;;;19.24;70.24;96874.47;10266191;28;20500;-26
2022/08/02 04:46:58;;;;;;;1.97;1.57;;;;;;;19.23;70.23;96882.91;10273578;28;20034;-25
2022/08/02 04:51:59;;;;;;;1.73;1.60;;;;;;;19.24;69.98;96889.72;10273977;28;20069;-26
2022/08/02 04:57:00;;;;;;;1.95;1.73;;;;;;;19.23;70.74;96893.94;10275184;28;20034;-25
2022/08/02 05:02:00;;;;;;;2.30;1.70;;;;;;;19.25;70.86;96902.38;10274802;28;20042;-27
2022/08/02 05:07:00;;;;;;;2.00;1.73;;;;;;;19.26;70.89;96910.88;10276925;28;20054;-27
2022/08/02 05:12:01;;;;;;;3.77;1.90;;;;;;;19.27;71.06;96915.09;10277246;28;20030;-26
2022/08/02 05:17:01;;;;;;;2.27;1.57;;;;;;;19.30;71.00;96903.25;10277047;28;20038;-25
2022/08/02 05:22:01;;;;;;;2.17;1.57;;;;;;;19.34;71.29;96906.63;10275139;28;20038;-26
2022/08/02 05:27:02;;;;;;;2.00;1.50;;;;;;;19.34;70.94;96897.31;10275193;28;21260;-26
2022/08/02 05:32:02;;;;;;;3.70;1.90;;;;;;;19.38;70.71;96896.47;10281593;28;20045;-26
2022/08/02 05:37:03;;;;;;;4.03;1.88;;;;;;;19.39;70.90;96899.84;10278730;28;20638;-26
2022/08/02 05:42:03;;;;;;;3.10;1.93;;;;;;;19.43;70.92;96892.22;10281700;28;20169;-25
2022/08/02 05:47:03;;;;;;;2.60;1.65;;;;;;;19.43;70.78;96891.38;10299147;28;20038;-26
2022/08/02 05:52:15;;;;;;;2.30;1.70;;;;;;;19.46;70.70;96896.44;10330055;28;20030;-26
2022/08/02 05:57:28;;;;;;;1.90;1.80;;;;;;;19.46;70.00;96896.44;10331534;28;20061;-25
2022/08/02 06:02:32;;;;;;;1.48;1.35;;;;;;;19.46;70.46;96892.22;10328523;28;20048;-26
2022/08/02 06:07:35;;;;;;;2.10;1.70;;;;;;;19.46;71.01;96886.28;10328824;28;20417;-25
2022/08/02 06:12:43;;;;;;;2.70;1.88;;;;;;;19.49;71.38;96896.47;10290227;28;20030;-27
2022/08/02 06:17:44;;;;;;;2.08;1.88;;;;;;;19.63;71.07;96889.66;10280918;28;20030;-25
2022/08/02 06:22:45;;;;;;;2.58;1.98;;;;;;;19.87;70.21;96900.63;10280499;28;20038;-26
2022/08/02 06:27:48;;;;;;;2.40;2.20;;;;;;;19.69;71.70;96893.03;10282017;28;20547;-26
2022/08/02 06:32:51;;;;;;;2.40;2.20;;;;;;;19.68;71.93;96893.88;10277569;28;20138;-25
2022/08/02 06:37:59;;;;;;;5.07;2.20;;;;;;;19.89;70.73;96900.59;10300620;28;20037;-26
2022/08/02 06:43:05;;;;;;;3.28;2.13;;;;;;;20.42;70.93;96908.06;10323933;28;20034;-26
2022/08/02 06:48:06;;;;;;;7.25;2.05;;;;;;;20.60;68.87;96897.81;10327839;28;20064;-27
2022/08/02 06:53:08;;;;;;;10.02;2.40;;;;;;;20.71;68.66;96906.22;10323364;28;20045;-26
2022/08/02 06:58:08;;;;;;;2.72;1.67;;;;;;;20.76;68.25;96894.31;10270973;28;20128;-25
2022/08/02 07:03:09;;;;;;;2.20;2.00;;;;;;;20.76;68.26;96893.47;10281033;28;21030;-26
2022/08/02 07:08:09;;;;;;;4.13;2.08;;;;;;;20.76;67.80;96899.41;10283201;28;20480;-26
2022/08/02 07:13:10;;;;;;;2.97;2.30;;;;;;;20.93;70.19;96900.16;10279264;28;20061;-26
2022/08/02 07:18:14;;;;;;;2.42;2.00;;;;;;;21.05;70.54;96906.88;10281827;28;20038;-26
2022/08/02 07:23:15;;;;;;;2.97;2.28;;;;;;;20.99;67.68;96906.91;10324109;28;20042;-26
2022/08/02 07:28:15;;;;;;;1.93;1.77;;;;;;;20.90;66.95;96901.88;10270151;28;20421;-27
2022/08/02 07:33:16;;;;;;;5.55;2.17;;;;;;;20.85;67.76;96899.34;10274657;28;20304;-27
2022/08/02 07:38:16;;;;;;;2.42;2.08;;;;;;;20.80;67.20;96901.06;10274278;28;20904;-27
2022/08/02 07:43:16;;;;;;;3.28;2.15;;;;;;;21.12;67.87;96909.38;10274599;28;20489;-27
2022/08/02 07:48:17;;;;;;;2.47;2.20;;;;;;;21.07;67.27;96908.53;10291020;28;20512;-25
2022/08/02 07:53:18;;;;;;;3.70;2.13;;;;;;;20.93;67.28;96902.72;10278729;28;20484;-26
2022/08/02 07:58:18;;;;;;;3.45;2.00;;;;;;;20.90;67.42;96902.72;10273339;28;20539;-26
2022/08/02 08:03:18;;;;;;;2.00;1.50;;;;;;;20.79;67.13;96883.28;10276844;28;20112;-26
2022/08/02 08:08:19;;;;;;;2.23;1.77;;;;;;;21.08;66.91;96907.72;10270150;28;20705;-26
2022/08/02 08:13:19;;;;;;;2.63;1.60;;;;;;;21.16;66.62;96905.94;10272084;28;20297;-26
2022/08/02 08:18:21;;;;;;;1.67;1.53;;;;;;;21.07;65.07;96908.53;10275763;28;20041;-26
2022/08/02 08:23:21;;;;;;;3.83;1.65;;;;;;;20.95;66.25;96901.00;10267969;28;20077;-25
2022/08/02 08:28:22;;;;;;;6.73;2.10;;;;;;;20.94;66.13;96896.78;10264080;28;20035;-26
2022/08/02 08:33:22;;;;;;;2.53;2.03;;;;;;;20.92;65.99;96895.94;10268688;28;20046;-25
2022/08/02 08:38:22;;;;;;;2.87;1.57;;;;;;;20.90;65.49;96882.34;10264025;28;20505;-25
2022/08/02 08:43:23;;;;;;;2.17;1.88;;;;;;;20.92;65.79;96880.66;10264746;28;20125;-27
2022/08/02 08:48:25;;;;;;;3.70;1.90;;;;;;;20.91;65.26;96889.16;10269417;28;20038;-26
2022/08/02 08:53:30;;;;;;;6.65;2.10;;;;;;;20.93;65.64;96886.59;10265325;28;20097;-26
2022/08/02 08:58:30;;;;;;;5.60;1.80;;;;;;;21.04;65.47;96890.75;10271676;28;20041;-28
2022/08/02 09:03:31;;;;;;;6.77;1.97;;;;;;;21.20;66.10;96884.69;10277402;28;20562;-26
2022/08/02 09:08:32;;;;;;;3.13;1.60;;;;;;;21.21;64.54;96868.53;10281602;28;20038;-28
2022/08/02 09:13:32;;;;;;;1.60;1.40;;;;;;;21.09;64.72;96877.97;10287463;28;20036;-27
2022/08/02 09:18:38;;;;;;;4.13;1.70;;;;;;;21.00;65.12;96858.56;10281359;28;20085;-26
2022/08/02 09:23:41;;;;;;;4.53;1.80;;;;;;;21.02;64.92;96872.09;10283582;28;20308;-26
2022/08/02 09:28:45;;;;;;;4.38;1.98;;;;;;;20.99;64.98;96864.47;10274668;28;20127;-27
2022/08/02 09:33:51;;;;;;;4.47;2.17;;;;;;;21.01;64.76;96878.06;10284642;28;20038;-25
2022/08/02 09:38:55;;;;;;;6.97;1.92;;;;;;;20.99;64.84;96877.19;10276785;28;20424;-25
2022/08/02 09:43:58;;;;;;;3.65;1.58;;;;;;;20.95;64.87;96862.81;10279963;28;20246;-27
2022/08/02 09:49:01;;;;;;;5.38;2.00;;;;;;;20.97;64.80;96858.56;10283089;28;20040;-26
2022/08/02 09:54:22;;;;;;;2.83;1.92;;;;;;;21.21;64.66;96855.81;10272514;28;20046;-27
2022/08/02 09:59:24;;;;;;;3.13;1.98;;;;;;;21.28;64.64;96852.38;10323145;28;20054;-26
2022/08/02 10:04:30;;;;;;;3.10;1.63;;;;;;;21.18;64.15;96849.91;10335715;28;20026;-26
2022/08/02 10:09:31;;;;;;;6.35;1.85;;;;;;;21.09;64.41;96853.38;10333175;28;20022;-26
2022/08/02 10:14:34;;;;;;;3.45;2.10;;;;;;;21.05;64.38;96854.25;10328573;28;20512;-26
2022/08/02 10:19:34;;;;;;;3.72;1.88;;;;;;;21.01;64.62;96847.50;10328758;28;20030;-26
2022/08/02 10:24:38;;;;;;;2.30;1.92;;;;;;;21.08;65.04;96850.84;10327135;28;20030;-25
2022/08/02 10:29:39;;;;;;;5.72;2.45;;;;;;;21.06;64.49;96852.56;10325096;28;20820;-25
2022/08/02 10:34:45;;;;;;;4.20;2.88;;;;;;;21.05;64.58;96841.53;10329760;28;20034;-25
2022/08/02 10:39:46;;;;;;;;;;;;;;;21.05;64.48;96845.78;10324157;28;20057;-25
2022/08/02 10:44:46;;;;;;;2.42;2.22;;;;;;;21.18;64.73;96838.03;10328359;28;19910;-26
2022/08/02 10:49:58;;;;;;;4.10;3.80;;;;;;;21.35;64.74;96830.22;10327326;28;20030;-26
2022/08/02 10:55:09;;;;;;;2.67;1.52;;;;;;;21.34;63.87;96834.50;10327539;28;20341;-25
2022/08/02 11:00:17;;;;;;;2.50;2.30;;;;;;;21.21;64.10;96837.16;10325459;28;20049;-26
2022/08/02 11:05:27;;;;;;;2.90;2.42;;;;;;;21.13;64.32;96827.03;10318716;28;20037;-26
2022/08/02 11:10:38;;;;;;;3.60;1.92;;;;;;;21.12;64.59;96832.97;10285345;28;20089;-26
2022/08/02 11:16:01;;;;;;;4.35;2.97;;;;;;;21.11;64.27;96836.38;10283329;28;20037;-27
2022/08/02 11:21:19;;;;;;;3.20;2.70;;;;;;;21.13;65.68;96829.56;10284974;28;20149;-26
2022/08/02 11:26:32;;;;;;;6.40;4.85;;;;;;;21.14;64.65;96826.16;10274970;28;20038;-25
2022/08/02 11:31:40;;;;;;;3.72;3.42;;;;;;;21.09;64.25;96822.84;10279556;28;20675;-27
2022/08/02 11:36:49;;;;;;;4.47;3.45;;;;;;;21.13;65.71;96814.28;10276241;28;20057;-27
2022/08/02 11:41:53;;;;;;;3.83;2.80;;;;;;;21.36;64.67;96812.38;10280844;28;20038;-25
2022/08/02 11:46:55;;;;;;;2.05;1.77;;;;;;;21.40;63.41;96810.66;10274596;28;20046;-27
2022/08/02 11:52:00;;;;;;;1.65;1.55;;;;;;;21.23;64.34;96810.81;10273872;28;20038;-26
2022/08/02 11:57:20;;;;;;;1.33;1.23;;;;;;;21.13;64.20;96810.91;10275485;28;20523;-26
2022/08/02 12:02:27;;;;;;;2.17;1.90;;;;;;;21.10;63.94;96809.25;10274286;28;20034;-26
2022/08/02 12:07:33;;;;;;;;;;;;;;;21.10;63.90;96816.88;10272625;28;21029;-27
2022/08/02 12:12:49;;;;;;;2.43;1.63;;;;;;;21.09;64.16;96806.69;10263709;28;19971;-25
2022/08/02 12:23:08;;;;;;;3.38;2.72;;;;;;;21.11;64.10;96797.34;10272314;28;20053;-25
2022/08/02 12:28:21;;;;;;;3.67;2.25;;;;;;;21.10;63.88;96796.50;10283529;28;20689;-27
2022/08/02 12:33:23;;;;;;;1.98;1.65;;;;;;;21.33;64.42;96801.38;10313860;28;20046;-26
2022/08/02 12:38:23;;;;;;;2.67;2.15;;;;;;;21.46;64.43;96795.31;10269477;28;20538;-26
2022/08/02 12:43:24;;;;;;;3.40;2.07;;;;;;;21.31;64.46;96786.09;10262843;28;20045;-26
2022/08/02 12:48:36;;;;;;;4.73;2.80;;;;;;;21.27;65.26;96788.69;10263056;28;20034;-26
2022/08/02 12:53:36;;;;;;;3.65;2.10;;;;;;;21.20;65.31;96770.09;10262949;28;20293;-25
2022/08/02 12:58:50;;;;;;;3.05;2.22;;;;;;;21.20;64.89;96777.75;10262652;28;20042;-25
2022/08/02 13:03:52;;;;;;;6.38;2.80;;;;;;;21.21;65.25;96771.78;10263724;28;20054;-26
2022/08/02 13:08:54;;;;;;;3.67;2.15;;;;;;;21.19;64.01;96770.97;10264397;28;20134;-26
2022/08/02 13:13:54;;;;;;;4.82;2.00;;;;;;;21.19;64.33;96763.31;10267756;28;20520;-27
2022/08/02 13:18:55;;;;;;;7.60;2.35;;;;;;;21.20;64.17;96770.09;10271431;28;20029;-26
2022/08/02 13:23:55;;;;;;;5.30;3.40;;;;;;;21.24;66.12;96769.19;10261530;28;20061;-26
2022/08/02 13:28:56;;;;;;;2.73;2.07;;;;;;;21.42;64.33;96758.84;10270070;28;20053;-26
2022/08/02 13:33:56;;;;;;;4.18;1.95;;;;;;;21.51;63.69;96755.34;10266759;28;20034;-26
2022/08/02 13:38:57;;;;;;;9.67;2.90;;;;;;;21.35;64.24;96749.56;10268139;28;20046;-26
2022/08/02 13:43:57;;;;;;;4.93;3.13;;;;;;;21.33;64.22;96756.41;10258242;28;20034;-26
2022/08/02 13:48:58;;;;;;;5.13;2.13;;;;;;;21.30;64.09;96758.97;10271875;28;20050;-26
2022/08/02 13:53:58;;;;;;;4.53;2.97;;;;;;;21.32;64.86;96758.94;10278896;28;20363;-25
2022/08/02 13:58:59;;;;;;;6.03;2.78;;;;;;;21.27;64.27;96753.03;10281767;28;20026;-26
2022/08/02 14:03:59;;;;;;;5.53;2.78;;;;;;;21.27;64.16;96755.59;10282652;28;20030;-25
2022/08/02 14:09:00;;;;;;;3.65;2.67;;;;;;;21.26;63.91;96746.28;10279572;28;20034;-26
2022/08/02 14:14:00;;;;;;;4.27;2.43;;;;;;;21.23;64.27;96743.78;10276256;28;20030;-27
2022/08/02 14:19:00;;;;;;;5.53;2.07;;;;;;;21.39;64.85;96741.03;10274419;28;20060;-27
2022/08/02 14:24:01;;;;;;;3.22;2.17;;;;;;;21.57;64.44;96740.81;10272482;28;20036;-27
2022/08/02 14:29:01;;;;;;;3.67;1.47;;;;;;;21.55;63.28;96742.53;10278518;28;20026;-27
2022/08/02 14:34:02;;;;;;;6.23;1.80;;;;;;;21.43;64.11;96729.97;10278169;28;20038;-26
2022/08/02 14:39:02;;;;;;;2.20;2.00;;;;;;;21.34;64.03;96731.75;10281112;28;20057;-27
2022/08/02 14:44:03;;;;;;;3.03;2.10;;;;;;;21.30;64.65;96730.13;10274410;28;20519;-26
2022/08/02 14:49:06;;;;;;;10.35;2.17;;;;;;;21.35;64.64;96725.78;10278048;28;20038;-27
2022/08/02 14:54:07;;;;;;;2.55;2.30;;;;;;;21.30;64.62;96714.84;10280792;28;20073;-26
2022/08/02 14:59:08;;;;;;;10.70;2.50;;;;;;;21.30;64.33;96714.84;10275747;28;20038;-25
2022/08/02 15:04:08;;;;;;;4.22;2.10;;;;;;;21.32;64.03;96718.19;10280066;28;20646;-26
2022/08/02 15:09:09;;;;;;;3.23;2.87;;;;;;;21.38;65.51;96713.88;10319330;28;20026;-25
2022/08/02 15:14:09;;;;;;;3.55;1.90;;;;;;;21.54;64.36;96712.84;10326645;28;20048;-25
2022/08/02 15:19:10;;;;;;;3.03;2.00;;;;;;;21.64;64.13;96714.41;10326445;28;20404;-25
2022/08/02 15:24:10;;;;;;;2.45;1.70;;;;;;;21.54;63.95;96715.38;10272019;28;20305;-27
2022/08/02 15:29:11;;;;;;;1.60;1.37;;;;;;;21.29;63.97;96711.44;10270605;28;20064;-27
2022/08/02 15:34:11;;;;;;;2.87;2.07;;;;;;;21.34;65.19;96717.31;10279018;28;20416;-27
2022/08/02 15:39:11;;;;;;;4.90;2.10;;;;;;;21.39;64.31;96707.91;10278667;28;20041;-27
2022/08/02 15:44:12;;;;;;;6.65;2.42;;;;;;;21.31;64.70;96709.69;10275266;28;20038;-26
2022/08/02 15:49:13;;;;;;;8.32;1.77;;;;;;;21.28;64.23;96707.19;10297923;28;20753;-25
2022/08/02 15:54:13;;;;;;;2.70;1.37;;;;;;;21.24;64.31;96697.91;10324985;28;20049;-26
2022/08/02 15:59:14;;;;;;;4.03;2.40;;;;;;;21.28;64.51;96702.09;10306126;28;20049;-27
2022/08/02 16:04:15;;;;;;;7.10;2.00;;;;;;;21.36;65.62;96695.22;10286864;28;20045;-26
2022/08/02 16:09:16;;;;;;;2.88;2.00;;;;;;;21.51;64.36;96682.31;10284284;28;20066;-27
2022/08/02 16:14:16;;;;;;;1.07;0.93;;;;;;;21.65;63.44;96693.19;10289460;28;20519;-26
2022/08/02 16:19:16;;;;;;;2.27;1.50;;;;;;;21.47;64.34;96682.38;10286252;28;20112;-26
2022/08/02 16:24:17;;;;;;;4.63;1.67;;;;;;;21.36;63.96;96694.38;10289275;28;20034;-25
2022/08/02 16:29:18;;;;;;;1.95;1.40;;;;;;;21.28;63.66;96681.72;10287734;28;20018;-25
2022/08/02 16:34:18;;;;;;;7.30;1.55;;;;;;;21.29;63.40;96672.41;10283779;28;20038;-26
2022/08/02 16:39:19;;;;;;;5.17;1.90;;;;;;;21.34;64.52;96676.59;10283962;28;20435;-25
2022/08/02 16:44:20;;;;;;;6.27;2.57;;;;;;;21.43;65.70;96670.50;10276794;28;20037;-25
2022/08/02 16:49:21;;;;;;;4.45;2.70;;;;;;;21.53;66.74;96678.03;10283908;28;20476;-26
2022/08/02 16:54:21;;;;;;;4.50;2.50;;;;;;;21.55;66.22;96672.94;10280824;28;20045;-26
2022/08/02 16:59:21;;;;;;;4.73;2.10;;;;;;;21.63;65.44;96674.50;10282354;28;20500;-26
2022/08/02 17:04:22;;;;;;;5.20;1.70;;;;;;;21.74;64.88;96670.13;10281646;28;20045;-25
2022/08/02 17:09:24;;;;;;;1.93;1.67;;;;;;;21.72;64.53;96678.69;10282111;28;20037;-27
2022/08/02 17:14:24;;;;;;;8.60;1.85;;;;;;;21.56;64.94;96672.88;10272372;28;20611;-27
2022/08/02 17:19:24;;;;;;;10.37;2.83;;;;;;;21.48;64.33;96676.41;10276953;28;20084;-25
2022/08/02 17:24:25;;;;;;;11.27;2.03;;;;;;;21.41;64.11;96673.06;10281505;28;20047;-26
2022/08/02 17:29:25;;;;;;;2.00;1.80;;;;;;;21.38;64.34;96682.47;10286590;28;20673;-26
2022/08/02 17:34:27;;;;;;;3.87;1.43;;;;;;;21.36;64.01;96685.03;10288004;28;20328;-25
2022/08/02 17:39:27;;;;;;;10.68;1.70;;;;;;;21.36;63.89;96684.19;10285158;28;20309;-26
2022/08/02 17:44:28;;;;;;;9.73;1.63;;;;;;;21.34;63.56;96691.00;10283145;28;20030;-25
2022/08/02 17:49:28;;;;;;;7.05;1.50;;;;;;;21.49;63.96;96686.56;10289804;28;21518;-26
2022/08/02 17:54:28;;;;;;;3.60;1.90;;;;;;;21.67;64.11;96691.47;10290225;28;20258;-25
2022/08/02 17:59:29;;;;;;;1.97;1.33;;;;;;;21.60;63.44;96689.84;10283475;28;20547;-26
2022/08/02 18:04:30;;;;;;;1.77;1.30;;;;;;;21.49;64.07;96686.56;10283166;28;20428;-26
2022/08/02 18:09:31;;;;;;;5.60;2.03;;;;;;;21.52;64.92;96681.44;10278997;28;20027;-25
2022/08/02 18:14:31;;;;;;;5.10;2.35;;;;;;;21.60;65.38;96689.84;10286721;28;20042;-26
2022/08/02 18:19:32;;;;;;;3.10;2.80;;;;;;;21.59;65.70;96682.19;10281354;28;20042;-25
2022/08/02 18:24:32;;;;;;;4.50;2.50;;;;;;;21.62;65.85;96677.06;10281537;28;20038;-25
2022/08/02 18:29:33;;;;;;;4.50;2.80;;;;;;;21.64;65.89;96685.56;10281142;28;20294;-27
2022/08/02 18:34:34;;;;;;;5.33;2.60;;;;;;;21.66;66.01;96694.03;10280623;28;20133;-27
2022/08/02 18:39:35;;;;;;;4.78;2.50;;;;;;;21.79;64.35;96696.41;10281890;28;20046;-27
2022/08/02 18:44:35;;;;;;;1.20;1.10;;;;;;;21.79;63.06;96698.94;10281776;28;20070;-25
2022/08/02 18:49:36;;;;;;;1.80;1.50;;;;;;;21.58;64.28;96699.22;10278114;28;20476;-26
2022/08/02 18:54:36;;;;;;;1.70;1.58;;;;;;;21.48;63.88;96704.44;10280703;28;20301;-27
2022/08/02 18:59:36;;;;;;;1.50;1.40;;;;;;;21.41;63.54;96702.81;10280442;28;20041;-27
2022/08/02 19:04:42;;;;;;;1.30;1.07;;;;;;;21.40;63.62;96701.94;10280249;28;20292;-27
2022/08/02 19:09:42;;;;;;;1.52;1.30;;;;;;;21.33;63.68;96690.19;10279663;28;20026;-27
2022/08/02 19:14:43;;;;;;;2.03;1.37;;;;;;;21.37;63.54;96702.00;10276828;28;20500;-28
2022/08/02 19:19:43;;;;;;;2.27;2.07;;;;;;;21.37;63.29;96707.09;10278754;28;20045;-27
2022/08/02 19:24:44;;;;;;;2.60;1.73;;;;;;;21.36;63.48;96707.97;10279074;28;20538;-27
2022/08/02 19:29:45;;;;;;;2.95;1.30;;;;;;;21.54;63.88;96720.47;10283226;28;20031;-26
2022/08/02 19:34:45;;;;;;;4.23;2.00;;;;;;;21.73;63.92;96721.13;10285531;28;20037;-26
2022/08/02 19:39:46;;;;;;;1.65;1.30;;;;;;;21.64;63.54;96714.41;10284434;28;20034;-26
2022/08/02 19:44:46;;;;;;;1.03;0.93;;;;;;;21.37;63.71;96690.97;10310206;28;20045;-26
2022/08/02 19:49:47;;;;;;;2.35;1.55;;;;;;;21.46;63.52;96727.38;10319201;28;20404;-26
2022/08/02 19:54:47;;;;;;;3.23;1.77;;;;;;;21.41;63.56;96724.00;10321297;28;20022;-26
2022/08/02 19:59:47;;;;;;;2.80;1.50;;;;;;;21.34;63.69;96727.53;10320706;28;20034;-25
2022/08/02 20:04:48;;;;;;;2.43;0.97;;;;;;;21.23;58.58;96731.03;10320086;28;20296;-26
2022/08/02 20:09:50;;;;;;;1.00;0.90;;;;;;;21.15;58.57;96740.44;10321762;28;20038;-26
2022/08/02 20:14:52;;;;;;;2.63;1.27;;;;;;;21.10;57.48;96740.50;10318470;28;20038;-27
2022/08/02 20:19:52;;;;;;;1.75;1.00;;;;;;;21.08;59.22;96739.69;10319402;28;20042;-26
2022/08/02 20:24:52;;;;;;;0.90;0.80;;;;;;;21.10;58.73;96750.69;10322762;28;20042;-26
2022/08/02 20:29:53;;;;;;;1.00;0.90;;;;;;;21.08;58.98;96741.38;10323922;28;20485;-26
2022/08/02 20:34:53;;;;;;;0.82;0.82;;;;;;;21.04;59.72;96737.19;10325309;28;20049;-25
2022/08/02 20:39:53;;;;;;;3.53;1.17;;;;;;;21.05;58.98;96739.69;10321855;28;20034;-26
2022/08/02 20:44:54;;;;;;;1.50;1.00;;;;;;;21.00;58.86;96731.28;10322315;28;20038;-26
2022/08/02 20:55:14;;;;;;;1.40;1.00;;;;;;;20.95;58.49;96730.47;10322420;28;20030;-26
2022/08/02 21:00:15;;;;;;;1.10;0.80;;;;;;;20.83;59.69;96737.34;10317281;28;20113;-27
2022/08/02 21:05:15;;;;;;;1.40;1.00;;;;;;;20.75;60.99;96734.88;10321557;28;20026;-26
2022/08/02 21:10:16;;;;;;;1.47;0.80;;;;;;;20.80;58.88;96732.28;10320945;28;20038;-26
2022/08/02 21:15:16;;;;;;;1.67;1.10;;;;;;;20.82;57.72;96726.28;10322848;28;20449;-25
2022/08/02 21:20:17;;;;;;;2.10;1.00;;;;;;;20.86;56.55;96722.91;10323057;28;20069;-26
2022/08/02 21:25:20;;;;;;;2.30;1.00;;;;;;;20.82;59.02;96720.38;10321533;28;20041;-25
2022/08/02 21:30:21;;;;;;;0.70;0.70;;;;;;;20.84;59.23;96714.44;10318103;28;20066;-26
2022/08/02 21:35:23;;;;;;;2.45;1.00;;;;;;;20.82;58.47;96710.19;10322495;28;20034;-26
2022/08/02 21:40:23;;;;;;;0.70;0.70;;;;;;;20.80;57.84;96717.00;10311871;28;20034;-26
2022/08/02 21:45:23;;;;;;;1.05;0.95;;;;;;;20.72;58.72;96714.53;10322065;28;20046;-26
2022/08/02 21:50:24;;;;;;;2.43;0.83;;;;;;;20.73;57.49;96711.13;10316915;28;20041;-26
2022/08/02 21:55:24;;;;;;;2.95;0.80;;;;;;;20.61;58.31;96706.16;10323131;28;20823;-25
2022/08/02 22:00:25;;;;;;;2.23;0.97;;;;;;;20.71;59.41;96712.00;10319152;28;20038;-25
2022/08/02 22:05:26;;;;;;;2.67;0.88;;;;;;;20.63;58.31;96709.50;10322128;28;20046;-26
2022/08/02 22:10:26;;;;;;;2.38;0.80;;;;;;;20.65;58.94;96709.50;10326714;28;20035;-25
2022/08/02 22:15:26;;;;;;;4.90;1.30;;;;;;;20.45;58.20;96696.94;10327515;28;20041;-25
2022/08/02 22:20:27;;;;;;;3.20;1.10;;;;;;;20.49;58.02;96721.53;10325209;28;20561;-26
2022/08/02 22:25:27;;;;;;;1.30;1.00;;;;;;;20.50;58.96;96723.22;10329096;28;20034;-25
2022/08/02 22:30:27;;;;;;;1.10;1.00;;;;;;;20.60;58.45;96723.97;10328938;28;20065;-25
2022/08/02 22:35:28;;;;;;;1.10;1.00;;;;;;;20.59;58.81;96720.59;10327701;28;20088;-26
2022/08/02 22:40:28;;;;;;;1.10;0.80;;;;;;;20.57;57.38;96724.81;10328615;28;20290;-26
2022/08/02 22:45:29;;;;;;;1.13;0.80;;;;;;;20.54;57.36;96732.50;10328339;28;20520;-26
2022/08/02 22:50:29;;;;;;;1.07;0.80;;;;;;;20.51;58.09;96724.91;10326117;28;20061;-25
2022/08/02 22:55:30;;;;;;;1.60;0.87;;;;;;;20.46;58.34;96721.53;10328826;28;20042;-25
2022/08/02 23:00:30;;;;;;;3.80;1.15;;;;;;;20.36;58.53;96713.97;10327360;28;20038;-26
2022/08/02 23:05:30;;;;;;;1.03;0.80;;;;;;;20.38;58.07;96720.75;10327126;28;20038;-29
2022/08/02 23:10:31;;;;;;;1.10;0.90;;;;;;;20.42;58.23;96718.19;10323978;28;20030;-26
2022/08/02 23:20:50;;;;;;;1.00;0.90;;;;;;;20.38;58.31;96718.19;10321307;28;20463;-26
2022/08/02 23:25:50;;;;;;;1.70;1.00;;;;;;;20.30;57.81;96721.66;10327669;28;20046;-26
2022/08/02 23:30:51;;;;;;;1.37;0.93;;;;;;;20.30;57.83;96725.91;10324214;28;20030;-26
2022/08/02 23:35:51;;;;;;;2.13;0.80;;;;;;;20.39;58.07;96724.97;10323786;28;20401;-26
2022/08/02 23:40:51;;;;;;;0.80;0.80;;;;;;;20.36;58.18;96723.31;10327099;28;20068;-26
2022/08/02 23:46:00;;;;;;;1.03;0.87;;;;;;;20.23;57.97;96706.44;10322980;28;20301;-26